createdAt,value
2022-08-27T00:02:24.607Z,18.23
2022-08-27T00:04:56.712Z,18.21
2022-08-27T00:07:26.236Z,18.18
2022-08-27T00:09:55.713Z,18.12
2022-08-27T00:12:25.309Z,18.17
2022-08-27T00:14:54.794Z,18.20
2022-08-27T00:17:24.683Z,18.15
2022-08-27T00:19:56.735Z,18.18
2022-08-27T00:22:26.425Z,18.11
2022-08-27T00:24:55.917Z,18.00
2022-08-27T00:27:25.583Z,18.00
2022-08-27T00:29:55.413Z,18.03
2022-08-27T00:32:24.922Z,17.99
2022-08-27T00:34:56.970Z,17.94
2022-08-27T00:37:26.455Z,17.90
2022-08-27T00:39:56.355Z,17.97
2022-08-27T00:42:26.472Z,17.92
2022-08-27T00:44:59.357Z,17.88
2022-08-27T00:47:31.506Z,17.87
2022-08-27T00:50:05.698Z,17.92
2022-08-27T00:52:37.582Z,17.96
2022-08-27T00:55:10.622Z,17.89
2022-08-27T00:57:42.484Z,17.86
2022-08-27T01:00:15.925Z,17.84
2022-08-27T01:02:46.689Z,17.84
2022-08-27T01:05:20.864Z,17.88
2022-08-27T01:07:53.261Z,17.89
2022-08-27T01:10:25.379Z,17.93
2022-08-27T01:12:56.587Z,17.99
2022-08-27T01:15:28.580Z,17.93
2022-08-27T01:17:58.886Z,17.91
2022-08-27T01:20:35.317Z,17.88
2022-08-27T01:23:10.698Z,17.87
2022-08-27T01:25:44.086Z,17.89
2022-08-27T01:28:14.410Z,17.84
2022-08-27T01:30:44.375Z,17.88
2022-08-27T01:33:14.610Z,17.88
2022-08-27T01:35:44.626Z,17.87
2022-08-27T01:38:30.179Z,17.84
2022-08-27T01:41:04.383Z,17.80
2022-08-27T01:43:34.057Z,17.86
2022-08-27T01:46:03.560Z,17.93
2022-08-27T01:48:33.330Z,17.90
2022-08-27T01:51:02.941Z,17.93
2022-08-27T01:53:32.474Z,17.84
2022-08-27T01:56:04.792Z,17.87
2022-08-27T01:58:35.066Z,17.84
2022-08-27T02:01:07.271Z,17.80
2022-08-27T02:03:37.317Z,17.83
2022-08-27T02:06:08.626Z,17.83
2022-08-27T02:08:38.439Z,17.81
2022-08-27T02:11:11.109Z,17.80
2022-08-27T02:13:40.576Z,17.73
2022-08-27T02:16:10.823Z,17.78
2022-08-27T02:18:41.759Z,17.76
2022-08-27T02:21:12.969Z,17.71
2022-08-27T02:23:42.630Z,17.76
2022-08-27T02:26:14.770Z,17.77
2022-08-27T02:28:44.249Z,17.71
2022-08-27T02:31:14.226Z,17.78
2022-08-27T02:33:44.120Z,17.76
2022-08-27T02:36:13.742Z,17.73
2022-08-27T02:38:43.402Z,17.80
2022-08-27T02:41:16.699Z,17.82
2022-08-27T02:43:46.545Z,17.80
2022-08-27T02:46:16.987Z,17.82
2022-08-27T02:48:46.898Z,17.81
2022-08-27T02:51:16.413Z,17.78
2022-08-27T02:53:45.977Z,17.74
2022-08-27T02:56:21.715Z,17.74
2022-08-27T02:58:51.744Z,17.72
2022-08-27T03:01:21.245Z,17.72
2022-08-27T03:03:50.723Z,17.68
2022-08-27T03:06:20.158Z,17.68
2022-08-27T03:08:52.783Z,17.71
2022-08-27T03:11:25.823Z,17.68
2022-08-27T03:13:55.365Z,17.64
2022-08-27T03:16:24.892Z,17.71
2022-08-27T03:18:52.707Z,17.68
2022-08-27T03:21:24.553Z,17.60
2022-08-27T03:23:54.869Z,17.54
2022-08-27T03:26:27.146Z,17.52
2022-08-27T03:28:57.042Z,17.58
2022-08-27T03:31:29.360Z,17.63
2022-08-27T03:34:00.854Z,17.61
2022-08-27T03:36:32.120Z,17.54
2022-08-27T03:39:02.313Z,17.53
2022-08-27T03:41:43.760Z,17.47
2022-08-27T03:44:24.062Z,17.53
2022-08-27T03:46:53.830Z,17.49
2022-08-27T03:49:24.301Z,17.51
2022-08-27T03:51:54.884Z,17.55
2022-08-27T03:54:25.021Z,17.46
2022-08-27T03:56:57.134Z,17.44
2022-08-27T03:59:26.614Z,17.52
2022-08-27T04:01:56.592Z,17.52
2022-08-27T04:04:26.526Z,17.59
2022-08-27T04:06:55.994Z,17.40
2022-08-27T04:09:28.694Z,17.36
2022-08-27T04:12:00.777Z,17.41
2022-08-27T04:14:31.005Z,17.36
2022-08-27T04:17:00.854Z,17.43
2022-08-27T04:19:33.146Z,17.44
2022-08-27T04:22:03.843Z,17.38
2022-08-27T04:24:35.037Z,17.35
2022-08-27T04:27:08.705Z,17.32
2022-08-27T04:29:38.305Z,17.32
2022-08-27T04:32:09.906Z,17.33
2022-08-27T04:34:39.678Z,17.29
2022-08-27T04:37:09.306Z,17.29
2022-08-27T04:39:39.634Z,17.20
2022-08-27T04:42:11.913Z,17.23
2022-08-27T04:44:41.440Z,17.27
2022-08-27T04:47:10.925Z,17.31
2022-08-27T04:49:40.413Z,17.28
2022-08-27T04:52:10.834Z,17.21
2022-08-27T04:54:40.862Z,17.28
2022-08-27T04:57:13.031Z,17.28
2022-08-27T04:59:42.659Z,17.33
2022-08-27T05:02:12.198Z,17.24
2022-08-27T05:04:42.794Z,17.27
2022-08-27T05:07:12.866Z,17.20
2022-08-27T05:09:42.342Z,17.26
2022-08-27T05:12:14.487Z,17.21
2022-08-27T05:14:43.987Z,17.19
2022-08-27T05:17:13.433Z,17.18
2022-08-27T05:19:42.898Z,17.24
2022-08-27T05:22:12.551Z,17.09
2022-08-27T05:24:42.067Z,17.18
2022-08-27T05:27:14.138Z,17.17
2022-08-27T05:29:43.662Z,17.23
2022-08-27T05:32:13.496Z,17.17
2022-08-27T05:34:42.965Z,17.11
2022-08-27T05:37:13.791Z,17.17
2022-08-27T05:39:43.293Z,17.14
2022-08-27T05:42:15.522Z,17.12
2022-08-27T05:44:44.994Z,16.99
2022-08-27T05:47:14.554Z,17.00
2022-08-27T05:49:44.673Z,17.01
2022-08-27T05:52:14.606Z,17.01
2022-08-27T05:54:44.078Z,17.00
2022-08-27T05:57:16.218Z,17.04
2022-08-27T05:59:58.277Z,17.01
2022-08-27T06:02:28.427Z,17.07
2022-08-27T06:04:58.168Z,17.02
2022-08-27T06:07:27.701Z,17.04
2022-08-27T06:09:58.904Z,17.01
2022-08-27T06:12:32.374Z,17.12
2022-08-27T06:15:02.117Z,16.99
2022-08-27T06:17:32.087Z,17.06
2022-08-27T06:20:01.726Z,17.14
2022-08-27T06:22:31.322Z,17.00
2022-08-27T06:25:00.997Z,16.98
2022-08-27T06:27:33.180Z,17.01
2022-08-27T06:30:02.942Z,17.08
2022-08-27T06:32:32.442Z,17.06
2022-08-27T06:35:01.906Z,17.22
2022-08-27T06:37:31.942Z,17.26
2022-08-27T06:40:01.607Z,17.29
2022-08-27T06:42:34.797Z,17.24
2022-08-27T06:45:06.023Z,17.19
2022-08-27T06:47:36.066Z,17.29
2022-08-27T06:50:05.682Z,17.37
2022-08-27T06:52:35.154Z,17.35
2022-08-27T06:55:04.853Z,17.46
2022-08-27T06:57:36.938Z,17.41
2022-08-27T07:00:07.696Z,17.31
2022-08-27T07:02:38.766Z,17.36
2022-08-27T07:05:09.714Z,17.14
2022-08-27T07:07:44.197Z,17.08
2022-08-27T07:10:16.445Z,17.09
2022-08-27T07:12:48.683Z,17.05
2022-08-27T07:15:18.362Z,16.99
2022-08-27T07:17:51.721Z,17.01
2022-08-27T07:20:22.625Z,16.84
2022-08-27T07:22:54.169Z,16.74
2022-08-27T07:25:23.866Z,16.65
2022-08-27T07:27:56.845Z,16.62
2022-08-27T07:30:26.397Z,16.72
2022-08-27T07:32:56.277Z,16.72
2022-08-27T07:35:25.918Z,16.71
2022-08-27T07:37:55.411Z,16.68
2022-08-27T07:40:25.111Z,16.66
2022-08-27T07:43:10.290Z,16.64
2022-08-27T07:45:47.451Z,16.62
2022-08-27T07:48:17.300Z,16.57
2022-08-27T07:50:46.865Z,16.66
2022-08-27T07:53:16.369Z,16.60
2022-08-27T07:55:46.074Z,16.70
2022-08-27T07:58:18.780Z,16.80
2022-08-27T08:00:48.945Z,16.82
2022-08-27T08:03:18.443Z,16.85
2022-08-27T08:05:49.240Z,16.82
2022-08-27T08:08:18.876Z,16.77
2022-08-27T08:10:48.595Z,16.70
2022-08-27T08:13:22.138Z,16.90
2022-08-27T08:15:51.639Z,17.00
2022-08-27T08:18:21.091Z,17.11
2022-08-27T08:20:58.126Z,17.23
2022-08-27T08:23:28.312Z,17.25
2022-08-27T08:25:58.578Z,17.09
2022-08-27T08:28:31.788Z,17.27
2022-08-27T08:31:01.744Z,17.31
2022-08-27T08:33:31.708Z,17.36
2022-08-27T08:36:06.585Z,17.35
2022-08-27T08:38:36.790Z,17.44
2022-08-27T08:41:07.654Z,17.33
2022-08-27T08:43:42.206Z,17.54
2022-08-27T08:46:17.391Z,17.54
2022-08-27T08:48:50.741Z,17.60
2022-08-27T08:51:26.518Z,17.50
2022-08-27T08:53:58.047Z,17.47
2022-08-27T08:56:31.758Z,17.52
2022-08-27T08:59:06.504Z,17.55
2022-08-27T09:01:36.111Z,17.38
2022-08-27T09:04:08.135Z,17.40
2022-08-27T09:06:43.237Z,17.36
2022-08-27T09:09:21.403Z,17.21
2022-08-27T09:11:59.505Z,17.30
2022-08-27T09:14:37.297Z,17.33
2022-08-27T09:17:11.280Z,17.16
2022-08-27T09:19:41.591Z,17.20
2022-08-27T09:22:18.857Z,17.18
2022-08-27T09:24:55.974Z,17.23
2022-08-27T09:27:26.295Z,17.44
2022-08-27T09:29:59.263Z,17.38
2022-08-27T09:32:34.234Z,17.40
2022-08-27T09:35:06.059Z,17.35
2022-08-27T09:37:43.260Z,17.38
2022-08-27T09:40:23.469Z,17.31
2022-08-27T09:42:55.150Z,17.38
2022-08-27T09:45:29.866Z,17.55
2022-08-27T09:48:08.280Z,17.40
2022-08-27T09:50:43.738Z,17.36
2022-08-27T09:53:21.759Z,17.46
2022-08-27T09:55:52.677Z,17.41
2022-08-27T09:58:24.475Z,17.28
2022-08-27T10:01:05.326Z,17.39
2022-08-27T10:03:35.423Z,17.50
2022-08-27T10:06:05.214Z,17.51
2022-08-27T10:08:41.666Z,17.40
2022-08-27T10:11:14.785Z,17.39
2022-08-27T10:13:52.698Z,17.50
2022-08-27T10:16:42.610Z,17.50
2022-08-27T10:19:25.414Z,17.53
2022-08-27T10:21:59.497Z,17.54
2022-08-27T10:24:33.399Z,17.54
2022-08-27T10:27:09.695Z,17.52
2022-08-27T10:29:45.681Z,17.48
2022-08-27T10:32:27.302Z,17.56
2022-08-27T10:35:08.310Z,17.66
2022-08-27T10:37:46.630Z,17.64
2022-08-27T10:40:19.986Z,17.78
2022-08-27T10:42:57.684Z,17.83
2022-08-27T10:45:39.421Z,17.77
2022-08-27T10:48:18.701Z,17.75
2022-08-27T10:50:52.349Z,17.73
2022-08-27T10:53:28.180Z,17.83
2022-08-27T10:56:08.205Z,17.86
2022-08-27T10:58:44.414Z,17.92
2022-08-27T11:01:20.123Z,18.01
2022-08-27T11:03:55.897Z,17.92
2022-08-27T11:06:29.924Z,17.81
2022-08-27T11:09:04.046Z,17.70
2022-08-27T11:14:39.144Z,17.87
2022-08-27T11:17:14.352Z,17.95
2022-08-27T11:19:54.473Z,17.97
2022-08-27T11:22:27.835Z,18.10
2022-08-27T11:25:00.273Z,18.19
2022-08-27T11:27:32.855Z,18.14
2022-08-27T11:30:07.697Z,18.01
2022-08-27T11:32:46.989Z,17.95
2022-08-27T11:35:22.775Z,18.12
2022-08-27T11:38:28.020Z,18.10
2022-08-27T11:41:08.454Z,18.30
2022-08-27T11:43:39.975Z,18.38
2022-08-27T11:46:11.086Z,18.49
2022-08-27T11:48:42.944Z,18.41
2022-08-27T11:51:18.950Z,18.51
2022-08-27T11:53:59.373Z,18.52
2022-08-27T11:56:41.406Z,18.61
2022-08-27T11:59:23.254Z,18.79
2022-08-27T12:01:54.386Z,18.84
2022-08-27T12:04:37.095Z,18.92
2022-08-27T12:07:12.049Z,19.10
2022-08-27T12:09:58.087Z,19.26
2022-08-27T12:12:36.895Z,19.40
2022-08-27T12:15:09.103Z,19.42
2022-08-27T12:17:45.493Z,19.42
2022-08-27T12:20:23.708Z,19.58
2022-08-27T12:23:19.471Z,19.72
2022-08-27T12:25:58.437Z,19.62
2022-08-27T12:28:28.618Z,19.77
2022-08-27T12:30:59.007Z,20.02
2022-08-27T12:33:34.533Z,20.37
2022-08-27T12:36:11.149Z,20.68
2022-08-27T12:38:50.496Z,21.27
2022-08-27T12:41:32.039Z,21.45
2022-08-27T12:44:09.714Z,21.71
2022-08-27T12:46:41.957Z,21.66
2022-08-27T12:49:36.964Z,21.66
2022-08-27T12:52:02.470Z,21.80
2022-08-27T12:54:42.660Z,22.07
2022-08-27T12:57:18.854Z,21.99
2022-08-27T12:59:59.221Z,21.95
2022-08-27T13:02:43.721Z,22.47
2022-08-27T13:05:14.250Z,22.54
2022-08-27T13:07:46.247Z,22.66
2022-08-27T13:10:21.012Z,22.56
2022-08-27T13:12:51.650Z,22.41
2022-08-27T13:15:22.562Z,23.05
2022-08-27T13:17:52.785Z,23.19
2022-08-27T13:20:25.143Z,23.32
2022-08-27T13:22:55.940Z,23.66
2022-08-27T13:25:30.232Z,23.72
2022-08-27T13:28:07.879Z,23.69
2022-08-27T13:30:39.219Z,23.88
2022-08-27T13:33:10.460Z,23.66
2022-08-27T13:35:42.585Z,23.97
2022-08-27T13:38:12.660Z,24.41
2022-08-27T13:40:57.600Z,24.71
2022-08-27T13:43:40.953Z,24.75
2022-08-27T13:46:13.532Z,25.03
2022-08-27T13:48:43.693Z,25.23
2022-08-27T13:51:14.381Z,25.00
2022-08-27T13:53:59.324Z,24.89
2022-08-27T13:56:34.596Z,24.85
2022-08-27T13:59:12.445Z,24.53
2022-08-27T14:01:45.309Z,24.54
2022-08-27T14:04:25.270Z,24.29
2022-08-27T14:06:54.966Z,23.92
2022-08-27T14:09:27.022Z,24.04
2022-08-27T14:12:07.894Z,24.09
2022-08-27T14:14:40.606Z,24.26
2022-08-27T14:17:29.007Z,24.22
2022-08-27T14:20:03.051Z,24.35
2022-08-27T14:22:37.006Z,24.37
2022-08-27T14:25:07.563Z,24.47
2022-08-27T14:27:44.940Z,24.43
2022-08-27T14:30:29.653Z,24.41
2022-08-27T14:33:00.980Z,24.12
2022-08-27T14:35:31.349Z,23.86
2022-08-27T14:38:01.831Z,23.64
2022-08-27T14:40:31.514Z,23.36
2022-08-27T14:43:05.173Z,23.37
2022-08-27T14:45:37.131Z,23.61
2022-08-27T14:48:08.418Z,23.83
2022-08-27T14:50:48.029Z,23.66
2022-08-27T14:53:17.532Z,23.57
2022-08-27T14:55:51.914Z,23.62
2022-08-27T14:58:24.685Z,23.75
2022-08-27T15:00:56.203Z,23.87
2022-08-27T15:03:26.805Z,23.71
2022-08-27T15:05:57.590Z,23.69
2022-08-27T15:08:29.550Z,23.76
2022-08-27T15:11:03.425Z,23.82
2022-08-27T15:13:38.383Z,23.68
2022-08-27T15:16:08.619Z,23.63
2022-08-27T15:18:38.138Z,23.49
2022-08-27T15:21:08.878Z,23.39
2022-08-27T15:23:38.815Z,23.32
2022-08-27T15:26:08.603Z,23.27
2022-08-27T15:28:40.670Z,23.27
2022-08-27T15:31:10.344Z,23.19
2022-08-27T15:33:40.336Z,23.19
2022-08-27T15:36:11.971Z,23.02
2022-08-27T15:38:41.458Z,22.93
2022-08-27T15:41:11.274Z,22.86
2022-08-27T15:43:43.394Z,22.65
2022-08-27T15:46:12.969Z,22.54
2022-08-27T15:48:42.908Z,22.39
2022-08-27T15:51:13.817Z,22.46
2022-08-27T15:53:44.345Z,22.40
2022-08-27T15:56:13.870Z,22.37
2022-08-27T15:58:45.942Z,22.35
2022-08-27T16:01:18.545Z,22.20
2022-08-27T16:03:48.743Z,22.15
2022-08-27T16:06:19.603Z,22.17
2022-08-27T16:08:49.516Z,22.15
2022-08-27T16:11:19.082Z,22.05
2022-08-27T16:13:51.263Z,21.92
2022-08-27T16:16:24.897Z,21.89
2022-08-27T16:18:54.542Z,21.83
2022-08-27T16:21:24.331Z,21.82
2022-08-27T16:23:54.037Z,21.71
2022-08-27T16:26:23.585Z,21.58
2022-08-27T16:28:55.739Z,21.54
2022-08-27T16:31:25.402Z,21.49
2022-08-27T16:33:54.972Z,21.50
2022-08-27T16:36:24.595Z,21.40
2022-08-27T16:38:54.347Z,21.38
2022-08-27T16:41:24.122Z,21.24
2022-08-27T16:43:56.670Z,21.10
2022-08-27T16:46:26.674Z,20.97
2022-08-27T16:49:08.750Z,20.88
2022-08-27T16:51:38.866Z,20.79
2022-08-27T16:54:09.440Z,20.71
2022-08-27T16:56:40.158Z,20.63
2022-08-27T16:59:13.714Z,20.58
2022-08-27T17:01:45.823Z,20.47
2022-08-27T17:04:23.891Z,20.45
2022-08-27T17:06:58.986Z,20.43
2022-08-27T17:09:28.574Z,20.44
2022-08-27T17:12:05.192Z,20.36
2022-08-27T17:14:38.469Z,20.29
2022-08-27T17:17:09.507Z,20.24
2022-08-27T17:19:39.078Z,20.16
2022-08-27T17:22:09.505Z,20.09
2022-08-27T17:24:39.725Z,19.99
2022-08-27T17:27:09.350Z,19.93
2022-08-27T17:29:41.440Z,19.90
2022-08-27T17:32:11.601Z,19.82
2022-08-27T17:34:41.109Z,19.80
2022-08-27T17:37:10.613Z,19.71
2022-08-27T17:39:40.253Z,19.66
2022-08-27T17:42:10.263Z,19.56
2022-08-27T17:44:42.363Z,19.52
2022-08-27T17:47:12.383Z,19.47
2022-08-27T17:49:42.124Z,19.36
2022-08-27T17:52:15.087Z,19.32
2022-08-27T17:54:46.538Z,19.24
2022-08-27T17:57:20.126Z,19.24
2022-08-27T17:59:53.417Z,19.09
2022-08-27T18:02:25.337Z,19.05
2022-08-27T18:04:54.954Z,18.93
2022-08-27T18:07:24.659Z,18.73
2022-08-27T18:09:55.392Z,18.70
2022-08-27T18:12:27.490Z,18.61
2022-08-27T18:15:06.502Z,18.54
2022-08-27T18:17:36.232Z,18.46
2022-08-27T18:20:07.309Z,18.31
2022-08-27T18:22:38.901Z,18.22
2022-08-27T18:25:11.973Z,18.13
2022-08-27T18:27:45.200Z,18.10
2022-08-27T18:30:17.578Z,18.01
2022-08-27T18:32:47.323Z,17.90
2022-08-27T18:35:18.655Z,17.87
2022-08-27T18:37:48.497Z,17.83
2022-08-27T18:40:20.041Z,17.83
2022-08-27T18:42:52.288Z,17.75
2022-08-27T18:45:27.009Z,17.63
2022-08-27T18:48:00.114Z,17.59
2022-08-27T18:50:30.122Z,17.49
2022-08-27T18:52:59.897Z,17.48
2022-08-27T18:55:30.807Z,17.47
2022-08-27T18:58:00.297Z,17.35
2022-08-27T19:00:32.515Z,17.29
2022-08-27T19:03:02.293Z,17.16
2022-08-27T19:05:32.173Z,17.00
2022-08-27T19:08:01.781Z,16.96
2022-08-27T19:10:31.565Z,16.95
2022-08-27T19:13:01.153Z,16.93
2022-08-27T19:15:33.454Z,16.86
2022-08-27T19:18:04.229Z,16.84
2022-08-27T19:20:34.325Z,16.80
2022-08-27T19:23:03.924Z,16.76
2022-08-27T19:25:33.571Z,16.67
2022-08-27T19:28:03.141Z,16.62
2022-08-27T19:30:35.294Z,16.60
2022-08-27T19:33:04.747Z,16.53
2022-08-27T19:35:34.237Z,16.44
2022-08-27T19:38:04.013Z,16.37
2022-08-27T19:40:38.207Z,16.30
2022-08-27T19:43:07.813Z,16.26
2022-08-27T19:45:42.447Z,16.21
2022-08-27T19:48:12.611Z,16.16
2022-08-27T19:50:43.147Z,16.13
2022-08-27T19:53:15.590Z,16.09
2022-08-27T19:55:46.140Z,15.95
2022-08-27T19:58:15.922Z,15.84
2022-08-27T20:00:48.639Z,15.84
2022-08-27T20:03:19.443Z,15.78
2022-08-27T20:05:51.576Z,15.79
2022-08-27T20:08:21.210Z,15.73
2022-08-27T20:10:51.236Z,15.64
2022-08-27T20:13:20.751Z,15.65
2022-08-27T20:15:53.647Z,15.57
2022-08-27T20:18:23.178Z,15.55
2022-08-27T20:20:52.846Z,15.47
2022-08-27T20:23:22.316Z,15.47
2022-08-27T20:26:00.492Z,15.50
2022-08-27T20:28:39.708Z,15.44
2022-08-27T20:31:12.608Z,15.31
2022-08-27T20:33:42.138Z,15.29
2022-08-27T20:36:12.060Z,15.27
2022-08-27T20:38:41.792Z,15.23
2022-08-27T20:41:11.465Z,15.20
2022-08-27T20:43:40.934Z,15.12
2022-08-27T20:46:16.634Z,15.02
2022-08-27T20:48:46.203Z,15.02
2022-08-27T20:51:18.415Z,14.85
2022-08-27T20:53:47.910Z,14.93
2022-08-27T20:56:17.520Z,14.83
2022-08-27T20:58:59.505Z,14.77
2022-08-27T21:01:32.015Z,14.88
2022-08-27T21:04:01.811Z,14.83
2022-08-27T21:06:33.464Z,14.79
2022-08-27T21:09:03.154Z,14.89
2022-08-27T21:11:32.936Z,14.85
2022-08-27T21:14:02.426Z,14.75
2022-08-27T21:16:34.646Z,14.70
2022-08-27T21:19:04.181Z,14.70
2022-08-27T21:21:33.765Z,14.62
2022-08-27T21:24:03.369Z,14.67
2022-08-27T21:26:34.143Z,14.89
2022-08-27T21:29:03.628Z,14.84
2022-08-27T21:31:35.955Z,14.95
2022-08-27T21:34:05.684Z,14.84
2022-08-27T21:36:35.258Z,14.78
2022-08-27T21:39:05.034Z,14.75
2022-08-27T21:41:37.435Z,14.74
2022-08-27T21:44:07.644Z,14.56
2022-08-27T21:46:39.842Z,14.46
2022-08-27T21:49:09.401Z,14.44
2022-08-27T21:51:38.981Z,14.43
2022-08-27T21:54:08.551Z,14.39
2022-08-27T21:56:38.006Z,14.34
2022-08-27T21:59:07.642Z,14.32
2022-08-27T22:01:39.803Z,14.40
2022-08-27T22:04:09.550Z,14.38
2022-08-27T22:06:39.034Z,14.23
2022-08-27T22:09:08.574Z,14.25
2022-08-27T22:11:38.462Z,14.19
2022-08-27T22:14:07.921Z,14.16
2022-08-27T22:16:43.981Z,14.06
2022-08-27T22:19:13.519Z,14.08
2022-08-27T22:21:43.162Z,14.08
2022-08-27T22:24:13.003Z,13.97
2022-08-27T22:26:42.542Z,13.91
2022-08-27T22:29:12.095Z,13.84
2022-08-27T22:31:44.368Z,13.76
2022-08-27T22:34:15.034Z,13.77
2022-08-27T22:36:45.252Z,13.71
2022-08-27T22:39:14.757Z,13.70
2022-08-27T22:41:46.698Z,13.61
2022-08-27T22:44:18.332Z,13.58
2022-08-27T22:46:50.428Z,13.55
2022-08-27T22:49:19.985Z,13.58
2022-08-27T22:51:49.881Z,13.54
2022-08-27T22:54:19.818Z,13.56
2022-08-27T22:56:49.257Z,13.48
2022-08-27T22:59:18.746Z,13.45
2022-08-27T23:01:51.456Z,13.36
2022-08-27T23:04:31.152Z,13.28
2022-08-27T23:07:09.282Z,13.44
2022-08-27T23:09:39.079Z,13.37
2022-08-27T23:12:08.906Z,13.51
2022-08-27T23:14:38.617Z,13.44
2022-08-27T23:17:10.661Z,13.33
2022-08-27T23:19:40.174Z,13.27
2022-08-27T23:22:09.918Z,13.28
2022-08-27T23:25:00.049Z,13.29
2022-08-27T23:27:29.765Z,13.19
2022-08-27T23:30:00.007Z,13.16
2022-08-27T23:32:35.413Z,13.10
2022-08-27T23:35:05.321Z,13.07
2022-08-27T23:37:34.773Z,13.04
2022-08-27T23:40:04.726Z,12.97
2022-08-27T23:42:34.755Z,12.98
2022-08-27T23:45:04.285Z,13.04
2022-08-27T23:47:36.404Z,13.09
2022-08-27T23:50:06.905Z,13.03
2022-08-27T23:52:36.717Z,13.08
2022-08-27T23:55:06.614Z,13.02
2022-08-27T23:57:36.353Z,13.26
